This is the latest recevied weather packets stored in our database for station/object KI4NG. If no packets are shown the sender has not sent any weather packets the latest 1 day(s).
| Time | Temp. | Humidity | Pressure | Rain* | Wind** | Luminosity | Snow |
|---|---|---|---|---|---|---|---|
| 1778038653 | 13.33° C | 99% | 1010.7 hPa | 0 mm | 1.79 m/s, 187° | 0 W/m² | - |
| 1778038350 | 13.33° C | 99% | 1010.5 hPa | 0 mm | 1.34 m/s, 236° | 0 W/m² | - |
| 1778038047 | 13.33° C | 99% | 1011.1 hPa | 1.27 mm | 1.34 m/s, 211° | 0 W/m² | - |
| 1778037744 | 13.33° C | 99% | 1010.7 hPa | 1.27 mm | 1.34 m/s, 211° | 0 W/m² | - |
| 1778037440 | 13.33° C | 99% | 1011 hPa | 0 mm | 0.89 m/s, 204° | 0 W/m² | - |
| 1778037138 | 13.33° C | 99% | 1011.4 hPa | 1.78 mm | 1.34 m/s, 177° | 0 W/m² | - |
| 1778036836 | 13.33° C | 99% | 1011.6 hPa | 4.83 mm | 0.89 m/s, 185° | 0 W/m² | - |
| 1778036533 | 13.33° C | 98% | 1012 hPa | 4.32 mm | 2.24 m/s, 173° | 0 W/m² | - |
| 1778036230 | 13.33° C | 98% | 1011.9 hPa | 1.27 mm | 2.24 m/s, 156° | 0 W/m² | - |
| 1778035926 | 13.33° C | 97% | 1012 hPa | 0 mm | 2.24 m/s, 215° | 0 W/m² | - |
| 1778035623 | 13.89° C | 96% | 1012.3 hPa | 0 mm | 1.79 m/s, 157° | 0 W/m² | - |
| 1778035319 | 13.89° C | 95% | 1012.3 hPa | 1.78 mm | 1.34 m/s, 174° | 0 W/m² | - |
| 1778035016 | 13.89° C | 94% | 1012.3 hPa | 3.05 mm | 3.13 m/s, 204° | 0 W/m² | - |
| 1778034714 | 13.89° C | 92% | 1011.7 hPa | 4.32 mm | 3.13 m/s, 189° | 0 W/m² | - |
| 1778034410 | 15° C | 90% | 1011.6 hPa | 3.05 mm | 1.34 m/s, 178° | 0 W/m² | - |
| 1778034108 | 15° C | 83% | 1012.4 hPa | 1.78 mm | 2.68 m/s, 156° | 0 W/m² | - |
| 1778033806 | 15.56° C | 81% | 1012.5 hPa | 3.56 mm | 1.34 m/s, 196° | 0 W/m² | - |
| 1778033503 | 16.11° C | 79% | 1011.5 hPa | 3.05 mm | 0.89 m/s, 232° | 0 W/m² | - |
| 1778033200 | 16.67° C | 76% | 1010.9 hPa | 1.27 mm | 1.34 m/s, 186° | 0 W/m² | - |
| 1778032897 | 18.89° C | 63% | 1011.7 hPa | 0 mm | 3.13 m/s, 186° | 0 W/m² | - |
| 1778032595 | 18.89° C | 56% | 1011.8 hPa | 0 mm | 0.89 m/s, 205° | 0 W/m² | - |
| 1778032291 | 18.89° C | 55% | 1011.8 hPa | 0 mm | 0.89 m/s, 179° | 0 W/m² | - |
| 1778031989 | 18.89° C | 55% | 1011.7 hPa | 0 mm | 0.89 m/s, 179° | 0 W/m² | - |
| 1778031685 | 19.44° C | 53% | 1011.7 hPa | 0 mm | 3.58 m/s, 165° | 0 W/m² | - |
| 1778031383 | 19.44° C | 53% | 1011.9 hPa | 0 mm | 1.34 m/s, 216° | 0 W/m² | - |
* Rain latest hour (hover to see other rain measurements)
** Current wind speed in m/s (hover to see current wind gust speed)